sensor_id;sensor_type;location;lat;lon;timestamp;temperature;humidity
70166;SHT30;57541;47.408;18.822;2023-10-08T00:00:15;14.43;91.50
70166;SHT30;57541;47.408;18.822;2023-10-08T00:01:05;14.44;91.38
70166;SHT30;57541;47.408;18.822;2023-10-08T00:01:38;14.43;92.08
70166;SHT30;57541;47.408;18.822;2023-10-08T00:02:13;14.44;91.69
70166;SHT30;57541;47.408;18.822;2023-10-08T00:02:53;14.47;91.89
70166;SHT30;57541;47.408;18.822;2023-10-08T00:03:25;14.43;92.32
70166;SHT30;57541;47.408;18.822;2023-10-08T00:04:01;14.45;92.45
70166;SHT30;57541;47.408;18.822;2023-10-08T00:04:36;14.43;92.91
70166;SHT30;57541;47.408;18.822;2023-10-08T00:05:08;14.44;92.48
70166;SHT30;57541;47.408;18.822;2023-10-08T00:05:41;14.44;92.19
70166;SHT30;57541;47.408;18.822;2023-10-08T00:06:13;14.50;92.46
70166;SHT30;57541;47.408;18.822;2023-10-08T00:06:46;14.37;92.86
70166;SHT30;57541;47.408;18.822;2023-10-08T00:07:24;14.36;93.18
70166;SHT30;57541;47.408;18.822;2023-10-08T00:07:55;14.33;93.40
70166;SHT30;57541;47.408;18.822;2023-10-08T00:08:27;14.33;93.49
70166;SHT30;57541;47.408;18.822;2023-10-08T00:08:59;14.32;93.46
70166;SHT30;57541;47.408;18.822;2023-10-08T00:09:32;14.24;93.57
70166;SHT30;57541;47.408;18.822;2023-10-08T00:10:07;14.29;93.04
70166;SHT30;57541;47.408;18.822;2023-10-08T00:10:40;14.33;93.08
70166;SHT30;57541;47.408;18.822;2023-10-08T00:11:16;14.38;92.97
70166;SHT30;57541;47.408;18.822;2023-10-08T00:11:48;14.32;93.28
70166;SHT30;57541;47.408;18.822;2023-10-08T00:12:24;14.32;93.31
70166;SHT30;57541;47.408;18.822;2023-10-08T00:12:56;14.37;93.22
70166;SHT30;57541;47.408;18.822;2023-10-08T00:13:29;14.38;92.94
70166;SHT30;57541;47.408;18.822;2023-10-08T00:14:01;14.41;92.00
70166;SHT30;57541;47.408;18.822;2023-10-08T00:14:32;14.40;91.02
70166;SHT30;57541;47.408;18.822;2023-10-08T00:15:15;14.50;90.46
70166;SHT30;57541;47.408;18.822;2023-10-08T00:15:47;14.54;89.99
70166;SHT30;57541;47.408;18.822;2023-10-08T00:16:25;14.61;89.51
70166;SHT30;57541;47.408;18.822;2023-10-08T00:16:59;14.67;87.89
70166;SHT30;57541;47.408;18.822;2023-10-08T00:17:31;14.73;87.91
70166;SHT30;57541;47.408;18.822;2023-10-08T00:18:04;14.78;86.47
70166;SHT30;57541;47.408;18.822;2023-10-08T00:18:37;14.87;84.30
70166;SHT30;57541;47.408;18.822;2023-10-08T00:19:10;15.01;83.58
70166;SHT30;57541;47.408;18.822;2023-10-08T00:19:45;15.02;83.51
70166;SHT30;57541;47.408;18.822;2023-10-08T00:20:17;15.23;81.15
70166;SHT30;57541;47.408;18.822;2023-10-08T00:20:57;15.26;81.29
70166;SHT30;57541;47.408;18.822;2023-10-08T00:21:43;15.33;81.63
70166;SHT30;57541;47.408;18.822;2023-10-08T00:22:16;15.35;80.83
70166;SHT30;57541;47.408;18.822;2023-10-08T00:22:49;15.49;78.69
70166;SHT30;57541;47.408;18.822;2023-10-08T00:23:22;15.70;77.92
70166;SHT30;57541;47.408;18.822;2023-10-08T00:23:54;15.80;78.03
70166;SHT30;57541;47.408;18.822;2023-10-08T00:24:31;15.83;78.14
70166;SHT30;57541;47.408;18.822;2023-10-08T00:25:04;15.89;77.32
70166;SHT30;57541;47.408;18.822;2023-10-08T00:25:43;16.00;76.75
70166;SHT30;57541;47.408;18.822;2023-10-08T00:26:19;16.07;76.12
70166;SHT30;57541;47.408;18.822;2023-10-08T00:26:59;16.15;75.38
70166;SHT30;57541;47.408;18.822;2023-10-08T00:27:37;16.25;74.39
70166;SHT30;57541;47.408;18.822;2023-10-08T00:28:11;16.36;74.84
70166;SHT30;57541;47.408;18.822;2023-10-08T00:28:43;16.41;74.16
70166;SHT30;57541;47.408;18.822;2023-10-08T00:29:15;16.47;74.40
70166;SHT30;57541;47.408;18.822;2023-10-08T00:29:48;16.52;74.10
70166;SHT30;57541;47.408;18.822;2023-10-08T00:30:20;16.56;73.60
70166;SHT30;57541;47.408;18.822;2023-10-08T00:30:52;16.55;74.17
70166;SHT30;57541;47.408;18.822;2023-10-08T00:31:27;16.53;73.69
70166;SHT30;57541;47.408;18.822;2023-10-08T00:32:03;16.59;73.37
70166;SHT30;57541;47.408;18.822;2023-10-08T00:32:44;16.73;72.53
70166;SHT30;57541;47.408;18.822;2023-10-08T00:33:16;16.75;73.26
70166;SHT30;57541;47.408;18.822;2023-10-08T00:33:48;16.79;72.44
70166;SHT30;57541;47.408;18.822;2023-10-08T00:34:20;16.83;72.50
70166;SHT30;57541;47.408;18.822;2023-10-08T00:34:52;16.91;71.86
70166;SHT30;57541;47.408;18.822;2023-10-08T00:35:23;16.89;71.85
70166;SHT30;57541;47.408;18.822;2023-10-08T00:35:56;16.90;72.09
70166;SHT30;57541;47.408;18.822;2023-10-08T00:36:28;16.94;71.65
70166;SHT30;57541;47.408;18.822;2023-10-08T00:36:59;17.00;71.15
70166;SHT30;57541;47.408;18.822;2023-10-08T00:37:31;17.02;71.72
70166;SHT30;57541;47.408;18.822;2023-10-08T00:38:05;17.06;71.56
70166;SHT30;57541;47.408;18.822;2023-10-08T00:38:40;17.10;71.34
70166;SHT30;57541;47.408;18.822;2023-10-08T00:39:16;17.16;71.39
70166;SHT30;57541;47.408;18.822;2023-10-08T00:39:54;17.17;71.44
70166;SHT30;57541;47.408;18.822;2023-10-08T00:40:38;17.17;71.38
70166;SHT30;57541;47.408;18.822;2023-10-08T00:41:14;17.17;71.43
70166;SHT30;57541;47.408;18.822;2023-10-08T00:41:46;17.20;70.84
70166;SHT30;57541;47.408;18.822;2023-10-08T00:42:18;17.23;70.70
70166;SHT30;57541;47.408;18.822;2023-10-08T00:42:50;17.20;71.06
70166;SHT30;57541;47.408;18.822;2023-10-08T00:43:34;17.21;70.97
70166;SHT30;57541;47.408;18.822;2023-10-08T00:44:08;17.21;70.99
70166;SHT30;57541;47.408;18.822;2023-10-08T00:44:39;17.26;71.02
70166;SHT30;57541;47.408;18.822;2023-10-08T00:45:32;17.32;70.39
70166;SHT30;57541;47.408;18.822;2023-10-08T00:46:06;17.32;70.93
70166;SHT30;57541;47.408;18.822;2023-10-08T00:47:01;17.39;70.38
70166;SHT30;57541;47.408;18.822;2023-10-08T00:47:36;17.48;70.56
70166;SHT30;57541;47.408;18.822;2023-10-08T00:48:14;17.55;70.02
70166;SHT30;57541;47.408;18.822;2023-10-08T00:48:49;17.59;69.90
70166;SHT30;57541;47.408;18.822;2023-10-08T00:49:25;17.72;69.45
70166;SHT30;57541;47.408;18.822;2023-10-08T00:50:03;17.81;68.60
70166;SHT30;57541;47.408;18.822;2023-10-08T00:50:40;17.88;68.87
70166;SHT30;57541;47.408;18.822;2023-10-08T00:51:16;17.85;68.82
70166;SHT30;57541;47.408;18.822;2023-10-08T00:51:56;17.93;69.12
70166;SHT30;57541;47.408;18.822;2023-10-08T00:52:37;17.99;68.45
70166;SHT30;57541;47.408;18.822;2023-10-08T00:53:13;18.06;68.59
70166;SHT30;57541;47.408;18.822;2023-10-08T00:54:02;18.07;68.30
70166;SHT30;57541;47.408;18.822;2023-10-08T00:54:39;18.06;68.33
70166;SHT30;57541;47.408;18.822;2023-10-08T00:55:38;18.05;68.30
70166;SHT30;57541;47.408;18.822;2023-10-08T00:56:11;18.03;68.60
70166;SHT30;57541;47.408;18.822;2023-10-08T00:56:46;18.09;68.26
70166;SHT30;57541;47.408;18.822;2023-10-08T00:57:23;18.09;67.94
70166;SHT30;57541;47.408;18.822;2023-10-08T00:57:57;18.16;67.85
70166;SHT30;57541;47.408;18.822;2023-10-08T00:58:30;18.20;67.76
70166;SHT30;57541;47.408;18.822;2023-10-08T00:59:05;18.22;67.58
70166;SHT30;57541;47.408;18.822;2023-10-08T00:59:38;18.13;67.72
70166;SHT30;57541;47.408;18.822;2023-10-08T01:00:16;18.13;68.00
70166;SHT30;57541;47.408;18.822;2023-10-08T01:00:54;18.10;68.27
70166;SHT30;57541;47.408;18.822;2023-10-08T01:01:31;18.09;68.10
70166;SHT30;57541;47.408;18.822;2023-10-08T01:02:04;18.07;68.27
70166;SHT30;57541;47.408;18.822;2023-10-08T01:02:40;18.06;68.03
70166;SHT30;57541;47.408;18.822;2023-10-08T01:03:18;18.10;67.48
70166;SHT30;57541;47.408;18.822;2023-10-08T01:03:51;18.10;67.49
70166;SHT30;57541;47.408;18.822;2023-10-08T01:04:23;18.09;67.77
70166;SHT30;57541;47.408;18.822;2023-10-08T01:04:57;18.05;68.30
70166;SHT30;57541;47.408;18.822;2023-10-08T01:05:29;18.03;68.27
70166;SHT30;57541;47.408;18.822;2023-10-08T01:06:20;17.97;68.38
70166;SHT30;57541;47.408;18.822;2023-10-08T01:06:57;17.97;68.57
70166;SHT30;57541;47.408;18.822;2023-10-08T01:07:33;17.96;68.41
70166;SHT30;57541;47.408;18.822;2023-10-08T01:08:07;17.93;68.52
70166;SHT30;57541;47.408;18.822;2023-10-08T01:08:39;17.93;68.49
70166;SHT30;57541;47.408;18.822;2023-10-08T01:09:19;17.95;68.06
70166;SHT30;57541;47.408;18.822;2023-10-08T01:09:53;17.92;68.15
70166;SHT30;57541;47.408;18.822;2023-10-08T01:10:31;17.89;68.47
70166;SHT30;57541;47.408;18.822;2023-10-08T01:11:17;17.88;68.40
70166;SHT30;57541;47.408;18.822;2023-10-08T01:12:44;17.88;68.45
70166;SHT30;57541;47.408;18.822;2023-10-08T01:13:30;17.82;69.15
70166;SHT30;57541;47.408;18.822;2023-10-08T01:14:07;17.78;69.47
70166;SHT30;57541;47.408;18.822;2023-10-08T01:14:39;17.75;69.10
70166;SHT30;57541;47.408;18.822;2023-10-08T01:15:14;17.75;69.09
70166;SHT30;57541;47.408;18.822;2023-10-08T01:15:54;17.71;68.93
70166;SHT30;57541;47.408;18.822;2023-10-08T01:16:26;17.68;69.50
70166;SHT30;57541;47.408;18.822;2023-10-08T01:16:58;17.72;68.62
70166;SHT30;57541;47.408;18.822;2023-10-08T01:17:31;17.71;68.68
70166;SHT30;57541;47.408;18.822;2023-10-08T01:18:04;17.71;69.00
70166;SHT30;57541;47.408;18.822;2023-10-08T01:18:38;17.71;68.67
70166;SHT30;57541;47.408;18.822;2023-10-08T01:19:18;17.68;68.77
70166;SHT30;57541;47.408;18.822;2023-10-08T01:19:52;17.66;68.75
70166;SHT30;57541;47.408;18.822;2023-10-08T01:20:31;17.65;68.60
70166;SHT30;57541;47.408;18.822;2023-10-08T01:21:09;17.66;68.54
70166;SHT30;57541;47.408;18.822;2023-10-08T01:21:49;17.65;68.87
70166;SHT30;57541;47.408;18.822;2023-10-08T01:22:22;17.61;68.88
70166;SHT30;57541;47.408;18.822;2023-10-08T01:22:54;17.62;68.94
70166;SHT30;57541;47.408;18.822;2023-10-08T01:23:28;17.64;68.70
70166;SHT30;57541;47.408;18.822;2023-10-08T01:24:01;17.66;68.74
70166;SHT30;57541;47.408;18.822;2023-10-08T01:24:37;17.69;68.66
70166;SHT30;57541;47.408;18.822;2023-10-08T01:25:08;17.68;68.47
70166;SHT30;57541;47.408;18.822;2023-10-08T01:25:45;17.68;68.59
70166;SHT30;57541;47.408;18.822;2023-10-08T01:26:22;17.68;68.85
70166;SHT30;57541;47.408;18.822;2023-10-08T01:26:54;17.66;68.72
70166;SHT30;57541;47.408;18.822;2023-10-08T01:27:30;17.69;68.31
70166;SHT30;57541;47.408;18.822;2023-10-08T01:28:06;17.68;68.32
70166;SHT30;57541;47.408;18.822;2023-10-08T01:29:01;17.61;69.03
70166;SHT30;57541;47.408;18.822;2023-10-08T01:29:39;17.65;68.56
70166;SHT30;57541;47.408;18.822;2023-10-08T01:30:11;17.66;68.84
70166;SHT30;57541;47.408;18.822;2023-10-08T01:30:49;17.65;68.82
70166;SHT30;57541;47.408;18.822;2023-10-08T01:31:25;17.62;68.88
70166;SHT30;57541;47.408;18.822;2023-10-08T01:31:57;17.61;68.97
70166;SHT30;57541;47.408;18.822;2023-10-08T01:32:29;17.58;68.85
70166;SHT30;57541;47.408;18.822;2023-10-08T01:33:05;17.58;68.94
70166;SHT30;57541;47.408;18.822;2023-10-08T01:33:41;17.57;69.41
70166;SHT30;57541;47.408;18.822;2023-10-08T01:34:21;17.57;69.05
70166;SHT30;57541;47.408;18.822;2023-10-08T01:34:58;17.55;69.03
70166;SHT30;57541;47.408;18.822;2023-10-08T01:35:31;17.52;69.23
70166;SHT30;57541;47.408;18.822;2023-10-08T01:36:03;17.52;69.41
70166;SHT30;57541;47.408;18.822;2023-10-08T01:36:36;17.49;69.40
70166;SHT30;57541;47.408;18.822;2023-10-08T01:37:07;17.48;69.41
70166;SHT30;57541;47.408;18.822;2023-10-08T01:37:43;17.47;69.74
70166;SHT30;57541;47.408;18.822;2023-10-08T01:38:17;17.41;69.96
70166;SHT30;57541;47.408;18.822;2023-10-08T01:38:55;17.32;70.77
70166;SHT30;57541;47.408;18.822;2023-10-08T01:39:27;17.31;70.24
70166;SHT30;57541;47.408;18.822;2023-10-08T01:39:58;17.32;69.82
70166;SHT30;57541;47.408;18.822;2023-10-08T01:40:33;17.31;70.28
70166;SHT30;57541;47.408;18.822;2023-10-08T01:41:05;17.30;70.42
70166;SHT30;57541;47.408;18.822;2023-10-08T01:41:50;17.27;70.39
70166;SHT30;57541;47.408;18.822;2023-10-08T01:42:22;17.27;70.41
70166;SHT30;57541;47.408;18.822;2023-10-08T01:42:55;17.26;70.37
70166;SHT30;57541;47.408;18.822;2023-10-08T01:43:31;17.17;70.93
70166;SHT30;57541;47.408;18.822;2023-10-08T01:44:03;17.18;70.54
70166;SHT30;57541;47.408;18.822;2023-10-08T01:44:39;17.10;71.04
70166;SHT30;57541;47.408;18.822;2023-10-08T01:45:11;17.10;71.13
70166;SHT30;57541;47.408;18.822;2023-10-08T01:45:49;17.08;70.84
70166;SHT30;57541;47.408;18.822;2023-10-08T01:46:24;17.11;70.55
70166;SHT30;57541;47.408;18.822;2023-10-08T01:46:57;17.10;70.75
70166;SHT30;57541;47.408;18.822;2023-10-08T01:47:30;17.08;70.84
70166;SHT30;57541;47.408;18.822;2023-10-08T01:48:02;17.06;71.36
70166;SHT30;57541;47.408;18.822;2023-10-08T01:48:34;17.02;71.51
70166;SHT30;57541;47.408;18.822;2023-10-08T01:49:10;17.04;71.40
70166;SHT30;57541;47.408;18.822;2023-10-08T01:49:46;17.00;71.20
70166;SHT30;57541;47.408;18.822;2023-10-08T01:50:18;16.99;71.97
70166;SHT30;57541;47.408;18.822;2023-10-08T01:50:57;16.96;72.12
70166;SHT30;57541;47.408;18.822;2023-10-08T01:51:32;16.96;71.64
70166;SHT30;57541;47.408;18.822;2023-10-08T01:52:13;16.91;72.09
70166;SHT30;57541;47.408;18.822;2023-10-08T01:52:54;16.75;74.09
70166;SHT30;57541;47.408;18.822;2023-10-08T01:53:26;16.70;73.75
70166;SHT30;57541;47.408;18.822;2023-10-08T01:53:58;16.75;72.19
70166;SHT30;57541;47.408;18.822;2023-10-08T01:54:30;16.76;72.05
70166;SHT30;57541;47.408;18.822;2023-10-08T01:55:07;16.72;72.80
70166;SHT30;57541;47.408;18.822;2023-10-08T01:55:42;16.70;73.24
70166;SHT30;57541;47.408;18.822;2023-10-08T01:56:20;16.62;73.82
70166;SHT30;57541;47.408;18.822;2023-10-08T01:56:52;16.56;74.22
70166;SHT30;57541;47.408;18.822;2023-10-08T01:57:24;16.58;73.20
70166;SHT30;57541;47.408;18.822;2023-10-08T01:57:55;16.56;73.87
70166;SHT30;57541;47.408;18.822;2023-10-08T01:58:28;16.49;74.63
70166;SHT30;57541;47.408;18.822;2023-10-08T01:58:59;16.42;75.18
70166;SHT30;57541;47.408;18.822;2023-10-08T01:59:32;16.35;75.30
70166;SHT30;57541;47.408;18.822;2023-10-08T02:00:05;16.31;75.43
70166;SHT30;57541;47.408;18.822;2023-10-08T02:00:42;16.26;75.31
70166;SHT30;57541;47.408;18.822;2023-10-08T02:01:20;16.21;75.93
70166;SHT30;57541;47.408;18.822;2023-10-08T02:01:52;16.21;75.82
70166;SHT30;57541;47.408;18.822;2023-10-08T02:02:27;16.18;75.41
70166;SHT30;57541;47.408;18.822;2023-10-08T02:02:59;16.20;75.50
70166;SHT30;57541;47.408;18.822;2023-10-08T02:03:33;16.18;76.37
70166;SHT30;57541;47.408;18.822;2023-10-08T02:04:06;16.15;76.48
70166;SHT30;57541;47.408;18.822;2023-10-08T02:04:39;16.14;76.82
70166;SHT30;57541;47.408;18.822;2023-10-08T02:05:11;16.00;77.48
70166;SHT30;57541;47.408;18.822;2023-10-08T02:05:47;15.98;77.31
70166;SHT30;57541;47.408;18.822;2023-10-08T02:06:18;16.01;77.07
70166;SHT30;57541;47.408;18.822;2023-10-08T02:06:52;16.00;77.41
70166;SHT30;57541;47.408;18.822;2023-10-08T02:07:24;15.97;77.61
70166;SHT30;57541;47.408;18.822;2023-10-08T02:07:56;16.00;77.44
70166;SHT30;57541;47.408;18.822;2023-10-08T02:08:30;15.96;76.87
70166;SHT30;57541;47.408;18.822;2023-10-08T02:09:03;15.97;76.65
70166;SHT30;57541;47.408;18.822;2023-10-08T02:09:40;15.98;77.35
70166;SHT30;57541;47.408;18.822;2023-10-08T02:10:12;15.97;78.16
70166;SHT30;57541;47.408;18.822;2023-10-08T02:10:45;15.96;78.23
70166;SHT30;57541;47.408;18.822;2023-10-08T02:11:19;15.96;78.16
70166;SHT30;57541;47.408;18.822;2023-10-08T02:11:52;15.93;78.48
70166;SHT30;57541;47.408;18.822;2023-10-08T02:12:25;15.84;78.68
70166;SHT30;57541;47.408;18.822;2023-10-08T02:12:56;15.84;78.88
70166;SHT30;57541;47.408;18.822;2023-10-08T02:13:28;15.83;79.12
70166;SHT30;57541;47.408;18.822;2023-10-08T02:14:00;15.86;79.15
70166;SHT30;57541;47.408;18.822;2023-10-08T02:14:31;15.81;79.15
70166;SHT30;57541;47.408;18.822;2023-10-08T02:15:08;15.76;79.22
70166;SHT30;57541;47.408;18.822;2023-10-08T02:15:49;15.73;79.19
70166;SHT30;57541;47.408;18.822;2023-10-08T02:16:23;15.66;79.06
70166;SHT30;57541;47.408;18.822;2023-10-08T02:16:55;15.67;79.21
70166;SHT30;57541;47.408;18.822;2023-10-08T02:17:28;15.70;79.36
70166;SHT30;57541;47.408;18.822;2023-10-08T02:18:00;15.69;79.87
70166;SHT30;57541;47.408;18.822;2023-10-08T02:18:31;15.67;79.82
70166;SHT30;57541;47.408;18.822;2023-10-08T02:19:04;15.64;79.84
70166;SHT30;57541;47.408;18.822;2023-10-08T02:19:38;15.63;79.81
70166;SHT30;57541;47.408;18.822;2023-10-08T02:20:10;15.59;79.93
70166;SHT30;57541;47.408;18.822;2023-10-08T02:20:43;15.57;79.99
70166;SHT30;57541;47.408;18.822;2023-10-08T02:21:15;15.56;79.73
70166;SHT30;57541;47.408;18.822;2023-10-08T02:21:47;15.52;80.02
70166;SHT30;57541;47.408;18.822;2023-10-08T02:22:18;15.50;80.06
70166;SHT30;57541;47.408;18.822;2023-10-08T02:22:51;15.50;79.94
70166;SHT30;57541;47.408;18.822;2023-10-08T02:23:23;15.53;80.30
70166;SHT30;57541;47.408;18.822;2023-10-08T02:23:55;15.46;80.55
70166;SHT30;57541;47.408;18.822;2023-10-08T02:24:28;15.49;80.62
70166;SHT30;57541;47.408;18.822;2023-10-08T02:25:01;15.46;80.49
70166;SHT30;57541;47.408;18.822;2023-10-08T02:25:34;15.42;80.33
70166;SHT30;57541;47.408;18.822;2023-10-08T02:26:06;15.42;80.04
70166;SHT30;57541;47.408;18.822;2023-10-08T02:26:39;15.44;80.36
70166;SHT30;57541;47.408;18.822;2023-10-08T02:27:11;15.39;80.78
70166;SHT30;57541;47.408;18.822;2023-10-08T02:27:45;15.36;80.05
70166;SHT30;57541;47.408;18.822;2023-10-08T02:28:16;15.32;80.00
70166;SHT30;57541;47.408;18.822;2023-10-08T02:28:51;15.32;80.47
70166;SHT30;57541;47.408;18.822;2023-10-08T02:29:28;15.33;80.54
70166;SHT30;57541;47.408;18.822;2023-10-08T02:30:01;15.38;80.65
70166;SHT30;57541;47.408;18.822;2023-10-08T02:30:35;15.31;80.59
70166;SHT30;57541;47.408;18.822;2023-10-08T02:31:08;15.31;80.61
70166;SHT30;57541;47.408;18.822;2023-10-08T02:31:40;15.33;80.66
70166;SHT30;57541;47.408;18.822;2023-10-08T02:32:13;15.38;80.72
70166;SHT30;57541;47.408;18.822;2023-10-08T02:32:45;15.33;80.46
70166;SHT30;57541;47.408;18.822;2023-10-08T02:33:18;15.33;80.09
70166;SHT30;57541;47.408;18.822;2023-10-08T02:33:51;15.25;80.13
70166;SHT30;57541;47.408;18.822;2023-10-08T02:34:23;15.21;80.02
70166;SHT30;57541;47.408;18.822;2023-10-08T02:34:55;15.18;80.40
70166;SHT30;57541;47.408;18.822;2023-10-08T02:35:28;15.19;80.54
70166;SHT30;57541;47.408;18.822;2023-10-08T02:36:02;15.15;80.01
70166;SHT30;57541;47.408;18.822;2023-10-08T02:36:36;15.19;79.07
70166;SHT30;57541;47.408;18.822;2023-10-08T02:37:08;15.15;80.48
70166;SHT30;57541;47.408;18.822;2023-10-08T02:37:42;15.15;79.96
70166;SHT30;57541;47.408;18.822;2023-10-08T02:38:17;15.15;80.21
70166;SHT30;57541;47.408;18.822;2023-10-08T02:38:53;15.15;79.72
70166;SHT30;57541;47.408;18.822;2023-10-08T02:39:26;15.19;79.63
70166;SHT30;57541;47.408;18.822;2023-10-08T02:39:58;15.21;79.42
70166;SHT30;57541;47.408;18.822;2023-10-08T02:40:30;15.21;79.44
70166;SHT30;57541;47.408;18.822;2023-10-08T02:41:02;15.12;80.46
70166;SHT30;57541;47.408;18.822;2023-10-08T02:41:37;15.13;79.74
70166;SHT30;57541;47.408;18.822;2023-10-08T02:42:13;15.15;79.21
70166;SHT30;57541;47.408;18.822;2023-10-08T02:42:48;15.16;79.11
70166;SHT30;57541;47.408;18.822;2023-10-08T02:43:20;15.21;79.30
70166;SHT30;57541;47.408;18.822;2023-10-08T02:43:52;15.21;80.16
70166;SHT30;57541;47.408;18.822;2023-10-08T02:44:24;15.22;79.52
70166;SHT30;57541;47.408;18.822;2023-10-08T02:44:55;15.28;78.34
70166;SHT30;57541;47.408;18.822;2023-10-08T02:45:32;15.29;78.98
70166;SHT30;57541;47.408;18.822;2023-10-08T02:46:09;15.26;79.44
70166;SHT30;57541;47.408;18.822;2023-10-08T02:46:49;15.28;78.67
70166;SHT30;57541;47.408;18.822;2023-10-08T02:47:20;15.31;79.54
70166;SHT30;57541;47.408;18.822;2023-10-08T02:47:55;15.28;79.17
70166;SHT30;57541;47.408;18.822;2023-10-08T02:48:27;15.33;77.96
70166;SHT30;57541;47.408;18.822;2023-10-08T02:48:59;15.38;78.61
70166;SHT30;57541;47.408;18.822;2023-10-08T02:49:35;15.36;78.23
70166;SHT30;57541;47.408;18.822;2023-10-08T02:50:08;15.33;78.61
70166;SHT30;57541;47.408;18.822;2023-10-08T02:50:41;15.35;79.47
70166;SHT30;57541;47.408;18.822;2023-10-08T02:51:12;15.32;79.44
70166;SHT30;57541;47.408;18.822;2023-10-08T02:51:52;15.32;79.42
70166;SHT30;57541;47.408;18.822;2023-10-08T02:52:25;15.35;78.82
70166;SHT30;57541;47.408;18.822;2023-10-08T02:52:57;15.35;78.66
70166;SHT30;57541;47.408;18.822;2023-10-08T02:53:35;15.38;78.79
70166;SHT30;57541;47.408;18.822;2023-10-08T02:54:09;15.38;79.04
70166;SHT30;57541;47.408;18.822;2023-10-08T02:54:48;15.39;79.12
70166;SHT30;57541;47.408;18.822;2023-10-08T02:55:23;15.38;78.78
70166;SHT30;57541;47.408;18.822;2023-10-08T02:56:06;15.39;79.22
70166;SHT30;57541;47.408;18.822;2023-10-08T02:56:47;15.38;79.56
70166;SHT30;57541;47.408;18.822;2023-10-08T02:57:20;15.42;78.10
70166;SHT30;57541;47.408;18.822;2023-10-08T02:57:53;15.44;77.85
70166;SHT30;57541;47.408;18.822;2023-10-08T02:58:25;15.46;78.74
70166;SHT30;57541;47.408;18.822;2023-10-08T02:58:59;15.47;79.10
70166;SHT30;57541;47.408;18.822;2023-10-08T02:59:32;15.52;77.69
70166;SHT30;57541;47.408;18.822;2023-10-08T03:00:17;15.46;78.90
70166;SHT30;57541;47.408;18.822;2023-10-08T03:00:52;15.47;78.77
70166;SHT30;57541;47.408;18.822;2023-10-08T03:01:24;15.50;77.81
70166;SHT30;57541;47.408;18.822;2023-10-08T03:01:58;15.53;77.87
70166;SHT30;57541;47.408;18.822;2023-10-08T03:02:29;15.46;78.84
70166;SHT30;57541;47.408;18.822;2023-10-08T03:03:01;15.44;79.08
70166;SHT30;57541;47.408;18.822;2023-10-08T03:03:41;15.47;79.07
70166;SHT30;57541;47.408;18.822;2023-10-08T03:04:14;15.52;77.81
70166;SHT30;57541;47.408;18.822;2023-10-08T03:04:54;15.53;77.93
70166;SHT30;57541;47.408;18.822;2023-10-08T03:05:26;15.53;78.61
70166;SHT30;57541;47.408;18.822;2023-10-08T03:06:02;15.56;78.06
70166;SHT30;57541;47.408;18.822;2023-10-08T03:06:35;15.53;78.30
70166;SHT30;57541;47.408;18.822;2023-10-08T03:07:07;15.52;78.18
70166;SHT30;57541;47.408;18.822;2023-10-08T03:07:43;15.60;77.42
70166;SHT30;57541;47.408;18.822;2023-10-08T03:08:15;15.52;78.13
70166;SHT30;57541;47.408;18.822;2023-10-08T03:08:54;15.57;77.84
70166;SHT30;57541;47.408;18.822;2023-10-08T03:09:26;15.59;77.38
70166;SHT30;57541;47.408;18.822;2023-10-08T03:10:03;15.57;78.78
70166;SHT30;57541;47.408;18.822;2023-10-08T03:10:38;15.54;79.08
70166;SHT30;57541;47.408;18.822;2023-10-08T03:11:10;15.61;77.61
70166;SHT30;57541;47.408;18.822;2023-10-08T03:11:51;15.63;77.98
70166;SHT30;57541;47.408;18.822;2023-10-08T03:12:24;15.59;78.48
70166;SHT30;57541;47.408;18.822;2023-10-08T03:12:56;15.50;78.61
70166;SHT30;57541;47.408;18.822;2023-10-08T03:13:28;15.44;78.95
70166;SHT30;57541;47.408;18.822;2023-10-08T03:14:00;15.44;79.58
70166;SHT30;57541;47.408;18.822;2023-10-08T03:14:32;15.49;79.41
70166;SHT30;57541;47.408;18.822;2023-10-08T03:15:15;15.54;78.47
70166;SHT30;57541;47.408;18.822;2023-10-08T03:16:01;15.44;79.78
70166;SHT30;57541;47.408;18.822;2023-10-08T03:16:32;15.39;80.43
70166;SHT30;57541;47.408;18.822;2023-10-08T03:17:06;15.36;79.80
70166;SHT30;57541;47.408;18.822;2023-10-08T03:17:40;15.38;80.07
70166;SHT30;57541;47.408;18.822;2023-10-08T03:18:20;15.39;79.94
70166;SHT30;57541;47.408;18.822;2023-10-08T03:18:53;15.38;80.42
70166;SHT30;57541;47.408;18.822;2023-10-08T03:19:28;15.35;80.92
70166;SHT30;57541;47.408;18.822;2023-10-08T03:20:00;15.39;79.89
70166;SHT30;57541;47.408;18.822;2023-10-08T03:20:54;15.38;80.03
70166;SHT30;57541;47.408;18.822;2023-10-08T03:21:27;15.36;80.66
70166;SHT30;57541;47.408;18.822;2023-10-08T03:22:10;15.33;80.84
70166;SHT30;57541;47.408;18.822;2023-10-08T03:22:43;15.38;80.65
70166;SHT30;57541;47.408;18.822;2023-10-08T03:23:17;15.35;81.27
70166;SHT30;57541;47.408;18.822;2023-10-08T03:23:57;15.39;79.66
70166;SHT30;57541;47.408;18.822;2023-10-08T03:24:30;15.36;80.71
70166;SHT30;57541;47.408;18.822;2023-10-08T03:25:02;15.35;81.38
70166;SHT30;57541;47.408;18.822;2023-10-08T03:25:47;15.32;81.72
70166;SHT30;57541;47.408;18.822;2023-10-08T03:26:18;15.28;81.04
70166;SHT30;57541;47.408;18.822;2023-10-08T03:27:03;15.16;81.77
70166;SHT30;57541;47.408;18.822;2023-10-08T03:27:39;15.12;82.17
70166;SHT30;57541;47.408;18.822;2023-10-08T03:28:13;15.09;82.81
70166;SHT30;57541;47.408;18.822;2023-10-08T03:28:48;14.99;83.30
70166;SHT30;57541;47.408;18.822;2023-10-08T03:29:29;15.01;82.97
70166;SHT30;57541;47.408;18.822;2023-10-08T03:30:02;15.01;83.28
70166;SHT30;57541;47.408;18.822;2023-10-08T03:30:34;15.01;82.94
70166;SHT30;57541;47.408;18.822;2023-10-08T03:31:19;14.98;83.66
70166;SHT30;57541;47.408;18.822;2023-10-08T03:31:51;14.91;83.81
70166;SHT30;57541;47.408;18.822;2023-10-08T03:32:23;14.88;83.71
70166;SHT30;57541;47.408;18.822;2023-10-08T03:32:58;14.92;82.79
70166;SHT30;57541;47.408;18.822;2023-10-08T03:33:34;14.89;83.17
70166;SHT30;57541;47.408;18.822;2023-10-08T03:34:07;14.92;82.94
70166;SHT30;57541;47.408;18.822;2023-10-08T03:34:40;14.94;83.59
70166;SHT30;57541;47.408;18.822;2023-10-08T03:35:15;14.95;84.02
70166;SHT30;57541;47.408;18.822;2023-10-08T03:35:50;14.91;83.79
70166;SHT30;57541;47.408;18.822;2023-10-08T03:36:26;14.95;83.82
70166;SHT30;57541;47.408;18.822;2023-10-08T03:37:07;14.95;83.73
70166;SHT30;57541;47.408;18.822;2023-10-08T03:37:39;14.95;83.73
70166;SHT30;57541;47.408;18.822;2023-10-08T03:38:19;14.99;83.76